Kezdőlap
METAR-TAF:

METAR-TAF

Repülőterek :

Habarovszk repülőtér

Habarovszk, Oroszország

földrajzi szélesség: 48-31N, földrajzi hosszúság: 135-10E, magasság: 72 m

Jelenlegi meteorológiai megfigyelések

A jelentés 19 perccel ezelõtt készült, 10:30 UTC
Nyugati szél 6 kt
Hőmérséklet 16°C
Páratartalom 51%
Légköri nyomás 1014 hPa
Látótávolság 10 km, vagy több
felhőtlen 1500 m magasságban, és nincs gomolyfelhõ

METAR: UHHH 231030Z 28003MPS CAVOK 16/06 Q1014 R88/090060 NOSIG RMK QFE754/1006

Idő: 20:49 (10:49 UTC)

Előrejelzés

A jelentés 3 órával és 3 perccel ezelõtt készült, 07:46 UTC
Az előrejelzés 23-én 09 óra UTC és 24-én 15 óra UTC között érvényes
Déli szél 6 kt
Látótávolság 10 km, vagy több
felhőtlen 1500 m magasságban, és nincs gomolyfelhõ

TAF: UHHH 230746Z 2309/2415 19003MPS CAVOK

Meteorológiai megfigyelések és előrejelzések több, mint 4000 repülőtéren (METAR és TAF jelentéseket).

A térképen piros és sárga pontok jelzik az elérhető meteorológiai állomásokat.

Mozgassa az egeret a pont fölött, hogy megjelenjen az állomás neve.

Azután kattintson az időjárási megfigyelések és előrejelzések megtekintéséhez.

A térkép megváltoztatása: kattintson a fekete keresztel jelölt zöld gombra ráközelítéshez, a vonallal jelölt zöld gombra távolításhoz, vagy a zöld nyilakra a szomszédos térképek eléréséhez.


METAR-TAF: